sensor_id;sensor_type;location;lat;lon;timestamp;P1;durP1;ratioP1;P2;durP2;ratioP2
66169;SDS011;52971;44.024;20.456;2022-11-15T00:01:43;190.50;;;115.78;;
66169;SDS011;52971;44.024;20.456;2022-11-15T00:04:09;189.57;;;122.68;;
66169;SDS011;52971;44.024;20.456;2022-11-15T00:06:35;197.95;;;118.60;;
66169;SDS011;52971;44.024;20.456;2022-11-15T00:09:00;184.90;;;113.78;;
66169;SDS011;52971;44.024;20.456;2022-11-15T00:11:26;182.00;;;115.40;;
66169;SDS011;52971;44.024;20.456;2022-11-15T00:13:55;169.38;;;102.90;;
66169;SDS011;52971;44.024;20.456;2022-11-15T00:16:22;129.45;;;80.53;;
66169;SDS011;52971;44.024;20.456;2022-11-15T00:18:48;82.25;;;53.05;;
66169;SDS011;52971;44.024;20.456;2022-11-15T00:21:14;80.03;;;49.78;;
66169;SDS011;52971;44.024;20.456;2022-11-15T00:23:40;75.28;;;46.45;;
66169;SDS011;52971;44.024;20.456;2022-11-15T00:26:05;73.78;;;47.15;;
66169;SDS011;52971;44.024;20.456;2022-11-15T00:28:31;87.35;;;49.90;;
66169;SDS011;52971;44.024;20.456;2022-11-15T00:31:03;85.45;;;51.75;;
66169;SDS011;52971;44.024;20.456;2022-11-15T00:33:29;79.78;;;48.38;;
66169;SDS011;52971;44.024;20.456;2022-11-15T00:38:35;68.60;;;43.72;;
66169;SDS011;52971;44.024;20.456;2022-11-15T00:41:02;77.28;;;47.33;;
66169;SDS011;52971;44.024;20.456;2022-11-15T00:43:29;72.38;;;46.63;;
66169;SDS011;52971;44.024;20.456;2022-11-15T00:45:54;73.53;;;46.20;;
66169;SDS011;52971;44.024;20.456;2022-11-15T00:48:20;81.85;;;50.20;;
66169;SDS011;52971;44.024;20.456;2022-11-15T00:50:46;78.90;;;48.63;;
66169;SDS011;52971;44.024;20.456;2022-11-15T00:53:11;69.53;;;45.42;;
66169;SDS011;52971;44.024;20.456;2022-11-15T00:55:36;68.55;;;44.15;;
66169;SDS011;52971;44.024;20.456;2022-11-15T00:58:02;76.07;;;44.85;;
66169;SDS011;52971;44.024;20.456;2022-11-15T01:00:27;72.53;;;45.47;;
66169;SDS011;52971;44.024;20.456;2022-11-15T01:02:53;75.13;;;44.72;;
66169;SDS011;52971;44.024;20.456;2022-11-15T01:05:19;77.72;;;46.92;;
66169;SDS011;52971;44.024;20.456;2022-11-15T01:07:44;78.60;;;46.65;;
66169;SDS011;52971;44.024;20.456;2022-11-15T01:10:10;74.15;;;48.33;;
66169;SDS011;52971;44.024;20.456;2022-11-15T01:12:35;80.80;;;49.78;;
66169;SDS011;52971;44.024;20.456;2022-11-15T01:15:00;73.47;;;48.67;;
66169;SDS011;52971;44.024;20.456;2022-11-15T01:17:26;67.30;;;43.75;;
66169;SDS011;52971;44.024;20.456;2022-11-15T01:19:52;62.85;;;38.65;;
66169;SDS011;52971;44.024;20.456;2022-11-15T01:22:17;59.30;;;37.50;;
66169;SDS011;52971;44.024;20.456;2022-11-15T01:24:42;66.90;;;41.85;;
66169;SDS011;52971;44.024;20.456;2022-11-15T01:27:08;65.57;;;42.50;;
66169;SDS011;52971;44.024;20.456;2022-11-15T01:29:34;68.32;;;41.58;;
66169;SDS011;52971;44.024;20.456;2022-11-15T01:31:59;61.88;;;39.60;;
66169;SDS011;52971;44.024;20.456;2022-11-15T01:34:25;61.42;;;38.17;;
66169;SDS011;52971;44.024;20.456;2022-11-15T01:36:50;71.78;;;45.05;;
66169;SDS011;52971;44.024;20.456;2022-11-15T01:39:16;59.17;;;38.65;;
66169;SDS011;52971;44.024;20.456;2022-11-15T01:41:42;63.17;;;39.50;;
66169;SDS011;52971;44.024;20.456;2022-11-15T01:46:54;65.88;;;43.25;;
66169;SDS011;52971;44.024;20.456;2022-11-15T01:49:20;62.67;;;39.85;;
66169;SDS011;52971;44.024;20.456;2022-11-15T01:51:48;62.08;;;38.13;;
66169;SDS011;52971;44.024;20.456;2022-11-15T01:54:15;67.40;;;39.67;;
66169;SDS011;52971;44.024;20.456;2022-11-15T01:56:45;66.00;;;42.70;;
66169;SDS011;52971;44.024;20.456;2022-11-15T01:59:14;74.28;;;48.65;;
66169;SDS011;52971;44.024;20.456;2022-11-15T02:01:40;73.18;;;47.25;;
66169;SDS011;52971;44.024;20.456;2022-11-15T02:04:09;74.38;;;45.92;;
66169;SDS011;52971;44.024;20.456;2022-11-15T02:06:38;75.95;;;46.88;;
66169;SDS011;52971;44.024;20.456;2022-11-15T02:09:04;69.53;;;44.90;;
66169;SDS011;52971;44.024;20.456;2022-11-15T02:11:30;65.57;;;41.30;;
66169;SDS011;52971;44.024;20.456;2022-11-15T02:13:56;64.97;;;40.50;;
66169;SDS011;52971;44.024;20.456;2022-11-15T02:21:46;70.25;;;42.30;;
66169;SDS011;52971;44.024;20.456;2022-11-15T02:24:27;66.90;;;41.67;;
66169;SDS011;52971;44.024;20.456;2022-11-15T02:32:41;57.72;;;38.78;;
66169;SDS011;52971;44.024;20.456;2022-11-15T02:35:15;60.60;;;38.05;;
66169;SDS011;52971;44.024;20.456;2022-11-15T02:37:43;61.60;;;40.35;;
66169;SDS011;52971;44.024;20.456;2022-11-15T02:42:55;57.78;;;37.70;;
66169;SDS011;52971;44.024;20.456;2022-11-15T02:45:48;59.63;;;38.35;;
66169;SDS011;52971;44.024;20.456;2022-11-15T02:48:18;63.03;;;38.13;;
66169;SDS011;52971;44.024;20.456;2022-11-15T02:50:46;60.97;;;38.85;;
66169;SDS011;52971;44.024;20.456;2022-11-15T02:53:12;57.22;;;37.47;;
66169;SDS011;52971;44.024;20.456;2022-11-15T02:55:48;59.53;;;36.65;;
66169;SDS011;52971;44.024;20.456;2022-11-15T03:01:02;62.25;;;38.80;;
66169;SDS011;52971;44.024;20.456;2022-11-15T03:06:42;60.28;;;37.80;;
66169;SDS011;52971;44.024;20.456;2022-11-15T03:09:17;60.75;;;36.55;;
66169;SDS011;52971;44.024;20.456;2022-11-15T03:11:46;54.20;;;35.03;;
66169;SDS011;52971;44.024;20.456;2022-11-15T03:16:55;56.00;;;34.03;;
66169;SDS011;52971;44.024;20.456;2022-11-15T03:19:30;49.65;;;33.70;;
66169;SDS011;52971;44.024;20.456;2022-11-15T03:22:00;55.97;;;33.30;;
66169;SDS011;52971;44.024;20.456;2022-11-15T03:24:29;53.70;;;34.22;;
66169;SDS011;52971;44.024;20.456;2022-11-15T03:26:58;48.58;;;32.35;;
66169;SDS011;52971;44.024;20.456;2022-11-15T03:29:27;51.67;;;30.70;;
66169;SDS011;52971;44.024;20.456;2022-11-15T03:31:58;49.65;;;30.60;;
66169;SDS011;52971;44.024;20.456;2022-11-15T03:34:44;46.05;;;30.25;;
66169;SDS011;52971;44.024;20.456;2022-11-15T03:37:15;45.08;;;28.98;;
66169;SDS011;52971;44.024;20.456;2022-11-15T03:39:42;39.10;;;25.40;;
66169;SDS011;52971;44.024;20.456;2022-11-15T03:50:01;40.10;;;26.38;;
66169;SDS011;52971;44.024;20.456;2022-11-15T03:52:31;38.75;;;26.65;;
66169;SDS011;52971;44.024;20.456;2022-11-15T03:54:59;38.60;;;23.63;;
66169;SDS011;52971;44.024;20.456;2022-11-15T03:57:26;39.53;;;24.38;;
66169;SDS011;52971;44.024;20.456;2022-11-15T03:59:52;35.28;;;21.15;;
66169;SDS011;52971;44.024;20.456;2022-11-15T04:02:17;33.88;;;21.23;;
66169;SDS011;52971;44.024;20.456;2022-11-15T04:04:43;34.45;;;20.83;;
66169;SDS011;52971;44.024;20.456;2022-11-15T04:07:08;29.75;;;19.38;;
66169;SDS011;52971;44.024;20.456;2022-11-15T04:09:33;27.83;;;19.08;;
66169;SDS011;52971;44.024;20.456;2022-11-15T04:12:19;27.30;;;18.25;;
66169;SDS011;52971;44.024;20.456;2022-11-15T04:14:56;29.25;;;19.38;;
66169;SDS011;52971;44.024;20.456;2022-11-15T04:20:21;29.00;;;18.63;;
66169;SDS011;52971;44.024;20.456;2022-11-15T04:23:15;26.98;;;18.00;;
66169;SDS011;52971;44.024;20.456;2022-11-15T04:26:02;27.10;;;17.48;;
66169;SDS011;52971;44.024;20.456;2022-11-15T04:28:30;26.40;;;16.15;;
66169;SDS011;52971;44.024;20.456;2022-11-15T04:30:55;25.30;;;16.38;;
66169;SDS011;52971;44.024;20.456;2022-11-15T04:33:21;24.65;;;16.80;;
66169;SDS011;52971;44.024;20.456;2022-11-15T04:35:47;25.48;;;15.20;;
66169;SDS011;52971;44.024;20.456;2022-11-15T04:40:58;27.73;;;16.10;;
66169;SDS011;52971;44.024;20.456;2022-11-15T04:43:23;23.45;;;16.50;;
66169;SDS011;52971;44.024;20.456;2022-11-15T04:45:49;33.92;;;21.13;;
66169;SDS011;52971;44.024;20.456;2022-11-15T04:48:14;56.92;;;30.77;;
66169;SDS011;52971;44.024;20.456;2022-11-15T04:50:40;52.90;;;29.50;;
66169;SDS011;52971;44.024;20.456;2022-11-15T04:53:05;72.05;;;39.80;;
66169;SDS011;52971;44.024;20.456;2022-11-15T04:55:31;79.13;;;42.50;;
66169;SDS011;52971;44.024;20.456;2022-11-15T04:58:00;82.13;;;43.58;;
66169;SDS011;52971;44.024;20.456;2022-11-15T05:00:26;91.95;;;49.53;;
66169;SDS011;52971;44.024;20.456;2022-11-15T05:02:55;100.22;;;48.72;;
66169;SDS011;52971;44.024;20.456;2022-11-15T05:05:39;68.63;;;38.33;;
66169;SDS011;52971;44.024;20.456;2022-11-15T05:08:05;62.60;;;34.60;;
66169;SDS011;52971;44.024;20.456;2022-11-15T05:10:31;42.95;;;23.75;;
66169;SDS011;52971;44.024;20.456;2022-11-15T05:12:56;32.47;;;20.35;;
66169;SDS011;52971;44.024;20.456;2022-11-15T05:15:23;32.78;;;21.17;;
66169;SDS011;52971;44.024;20.456;2022-11-15T05:17:48;33.17;;;19.52;;
66169;SDS011;52971;44.024;20.456;2022-11-15T05:20:14;34.63;;;20.33;;
66169;SDS011;52971;44.024;20.456;2022-11-15T05:22:39;24.58;;;16.30;;
66169;SDS011;52971;44.024;20.456;2022-11-15T05:25:05;24.95;;;16.70;;
66169;SDS011;52971;44.024;20.456;2022-11-15T05:27:32;28.52;;;16.55;;
66169;SDS011;52971;44.024;20.456;2022-11-15T05:29:58;23.15;;;15.40;;
66169;SDS011;52971;44.024;20.456;2022-11-15T05:32:23;25.20;;;15.60;;
66169;SDS011;52971;44.024;20.456;2022-11-15T05:34:49;22.08;;;14.02;;
66169;SDS011;52971;44.024;20.456;2022-11-15T05:37:15;31.15;;;16.25;;
66169;SDS011;52971;44.024;20.456;2022-11-15T05:39:41;25.83;;;15.93;;
66169;SDS011;52971;44.024;20.456;2022-11-15T05:42:08;21.63;;;14.30;;
66169;SDS011;52971;44.024;20.456;2022-11-15T05:44:36;19.65;;;13.77;;
66169;SDS011;52971;44.024;20.456;2022-11-15T05:47:06;23.15;;;15.57;;
66169;SDS011;52971;44.024;20.456;2022-11-15T05:49:35;27.88;;;17.10;;
66169;SDS011;52971;44.024;20.456;2022-11-15T05:52:04;27.70;;;20.42;;
66169;SDS011;52971;44.024;20.456;2022-11-15T05:54:32;22.83;;;15.45;;
66169;SDS011;52971;44.024;20.456;2022-11-15T05:56:58;21.98;;;14.70;;
66169;SDS011;52971;44.024;20.456;2022-11-15T05:59:25;22.60;;;15.63;;
66169;SDS011;52971;44.024;20.456;2022-11-15T06:01:50;26.60;;;18.17;;
66169;SDS011;52971;44.024;20.456;2022-11-15T06:04:16;24.20;;;15.98;;
66169;SDS011;52971;44.024;20.456;2022-11-15T06:06:41;23.95;;;16.55;;
66169;SDS011;52971;44.024;20.456;2022-11-15T06:09:06;29.20;;;17.02;;
66169;SDS011;52971;44.024;20.456;2022-11-15T06:11:32;29.90;;;19.73;;
66169;SDS011;52971;44.024;20.456;2022-11-15T06:13:57;31.20;;;19.63;;
66169;SDS011;52971;44.024;20.456;2022-11-15T06:16:23;20.90;;;14.73;;
66169;SDS011;52971;44.024;20.456;2022-11-15T06:18:48;25.58;;;17.30;;
66169;SDS011;52971;44.024;20.456;2022-11-15T06:21:14;30.40;;;18.45;;
66169;SDS011;52971;44.024;20.456;2022-11-15T06:23:39;26.42;;;17.58;;
66169;SDS011;52971;44.024;20.456;2022-11-15T06:26:05;22.08;;;13.70;;
66169;SDS011;52971;44.024;20.456;2022-11-15T06:28:31;22.67;;;14.02;;
66169;SDS011;52971;44.024;20.456;2022-11-15T06:31:07;26.15;;;16.48;;
66169;SDS011;52971;44.024;20.456;2022-11-15T06:33:36;27.42;;;16.52;;
66169;SDS011;52971;44.024;20.456;2022-11-15T06:36:02;22.05;;;12.77;;
66169;SDS011;52971;44.024;20.456;2022-11-15T06:38:28;21.10;;;12.45;;
66169;SDS011;52971;44.024;20.456;2022-11-15T06:40:54;17.75;;;11.50;;
66169;SDS011;52971;44.024;20.456;2022-11-15T06:43:19;18.60;;;11.73;;
66169;SDS011;52971;44.024;20.456;2022-11-15T06:45:45;21.40;;;13.68;;
66169;SDS011;52971;44.024;20.456;2022-11-15T06:48:11;19.83;;;12.68;;
66169;SDS011;52971;44.024;20.456;2022-11-15T06:50:36;18.50;;;12.57;;
66169;SDS011;52971;44.024;20.456;2022-11-15T06:53:05;18.08;;;12.98;;
66169;SDS011;52971;44.024;20.456;2022-11-15T06:55:30;28.73;;;15.88;;
66169;SDS011;52971;44.024;20.456;2022-11-15T06:57:55;19.00;;;14.02;;
66169;SDS011;52971;44.024;20.456;2022-11-15T07:00:21;23.60;;;14.73;;
66169;SDS011;52971;44.024;20.456;2022-11-15T07:02:47;24.98;;;15.27;;
66169;SDS011;52971;44.024;20.456;2022-11-15T07:05:13;26.25;;;15.88;;
66169;SDS011;52971;44.024;20.456;2022-11-15T07:07:39;27.65;;;16.63;;
66169;SDS011;52971;44.024;20.456;2022-11-15T07:10:05;22.80;;;14.65;;
66169;SDS011;52971;44.024;20.456;2022-11-15T07:12:31;22.05;;;13.43;;
66169;SDS011;52971;44.024;20.456;2022-11-15T07:14:57;26.40;;;14.40;;
66169;SDS011;52971;44.024;20.456;2022-11-15T07:17:23;26.15;;;19.77;;
66169;SDS011;52971;44.024;20.456;2022-11-15T07:19:48;27.48;;;18.13;;
66169;SDS011;52971;44.024;20.456;2022-11-15T07:22:14;24.60;;;15.95;;
66169;SDS011;52971;44.024;20.456;2022-11-15T07:24:39;25.30;;;16.88;;
66169;SDS011;52971;44.024;20.456;2022-11-15T07:27:04;21.88;;;16.17;;
66169;SDS011;52971;44.024;20.456;2022-11-15T07:29:30;22.73;;;15.52;;
66169;SDS011;52971;44.024;20.456;2022-11-15T07:31:55;25.00;;;16.83;;
66169;SDS011;52971;44.024;20.456;2022-11-15T07:34:21;21.70;;;14.77;;
66169;SDS011;52971;44.024;20.456;2022-11-15T07:36:48;22.65;;;15.10;;
66169;SDS011;52971;44.024;20.456;2022-11-15T07:39:13;23.00;;;14.68;;
66169;SDS011;52971;44.024;20.456;2022-11-15T07:41:39;38.17;;;26.73;;
66169;SDS011;52971;44.024;20.456;2022-11-15T07:44:05;41.78;;;25.05;;
66169;SDS011;52971;44.024;20.456;2022-11-15T07:46:31;27.83;;;17.40;;
66169;SDS011;52971;44.024;20.456;2022-11-15T07:48:56;24.52;;;14.75;;
66169;SDS011;52971;44.024;20.456;2022-11-15T07:51:22;20.30;;;13.80;;
66169;SDS011;52971;44.024;20.456;2022-11-15T07:53:48;20.10;;;13.30;;
66169;SDS011;52971;44.024;20.456;2022-11-15T07:56:13;20.67;;;13.18;;
66169;SDS011;52971;44.024;20.456;2022-11-15T07:58:39;20.40;;;12.25;;
66169;SDS011;52971;44.024;20.456;2022-11-15T08:01:05;19.10;;;12.35;;
66169;SDS011;52971;44.024;20.456;2022-11-15T08:03:31;19.88;;;13.32;;
66169;SDS011;52971;44.024;20.456;2022-11-15T08:05:56;17.83;;;11.68;;
66169;SDS011;52971;44.024;20.456;2022-11-15T08:08:22;19.55;;;12.68;;
66169;SDS011;52971;44.024;20.456;2022-11-15T08:10:47;18.27;;;11.88;;
66169;SDS011;52971;44.024;20.456;2022-11-15T08:13:13;19.52;;;12.27;;
66169;SDS011;52971;44.024;20.456;2022-11-15T08:15:38;16.30;;;11.90;;
66169;SDS011;52971;44.024;20.456;2022-11-15T08:18:14;17.65;;;12.50;;
66169;SDS011;52971;44.024;20.456;2022-11-15T08:20:41;17.20;;;11.85;;
66169;SDS011;52971;44.024;20.456;2022-11-15T08:23:07;16.20;;;11.93;;
66169;SDS011;52971;44.024;20.456;2022-11-15T08:25:33;20.08;;;14.32;;
66169;SDS011;52971;44.024;20.456;2022-11-15T08:28:01;18.33;;;12.05;;
66169;SDS011;52971;44.024;20.456;2022-11-15T08:32:54;18.77;;;12.50;;
66169;SDS011;52971;44.024;20.456;2022-11-15T08:35:22;15.75;;;11.52;;
66169;SDS011;52971;44.024;20.456;2022-11-15T08:37:48;16.20;;;11.90;;
66169;SDS011;52971;44.024;20.456;2022-11-15T08:40:15;22.00;;;14.10;;
66169;SDS011;52971;44.024;20.456;2022-11-15T08:52:26;17.52;;;12.02;;
66169;SDS011;52971;44.024;20.456;2022-11-15T09:09:29;22.60;;;14.30;;
66169;SDS011;52971;44.024;20.456;2022-11-15T09:11:54;17.83;;;11.90;;
66169;SDS011;52971;44.024;20.456;2022-11-15T09:14:20;18.92;;;11.93;;
66169;SDS011;52971;44.024;20.456;2022-11-15T09:16:45;22.25;;;13.07;;
66169;SDS011;52971;44.024;20.456;2022-11-15T09:19:11;21.17;;;12.75;;
66169;SDS011;52971;44.024;20.456;2022-11-15T09:21:37;24.08;;;14.60;;
66169;SDS011;52971;44.024;20.456;2022-11-15T09:24:03;29.17;;;13.63;;
66169;SDS011;52971;44.024;20.456;2022-11-15T09:26:29;18.52;;;13.18;;
66169;SDS011;52971;44.024;20.456;2022-11-15T09:28:54;19.08;;;13.43;;
66169;SDS011;52971;44.024;20.456;2022-11-15T09:31:20;19.95;;;14.45;;
66169;SDS011;52971;44.024;20.456;2022-11-15T09:33:45;20.33;;;13.57;;
66169;SDS011;52971;44.024;20.456;2022-11-15T09:36:11;23.10;;;15.50;;
66169;SDS011;52971;44.024;20.456;2022-11-15T09:38:37;22.60;;;15.40;;
66169;SDS011;52971;44.024;20.456;2022-11-15T09:51:24;18.35;;;13.18;;
66169;SDS011;52971;44.024;20.456;2022-11-15T09:56:26;24.35;;;14.60;;
66169;SDS011;52971;44.024;20.456;2022-11-15T10:04:15;18.48;;;14.05;;
66169;SDS011;52971;44.024;20.456;2022-11-15T10:06:52;23.77;;;15.60;;
66169;SDS011;52971;44.024;20.456;2022-11-15T10:09:27;21.13;;;14.05;;
66169;SDS011;52971;44.024;20.456;2022-11-15T10:11:58;20.02;;;13.82;;
66169;SDS011;52971;44.024;20.456;2022-11-15T10:14:25;21.23;;;13.95;;
66169;SDS011;52971;44.024;20.456;2022-11-15T10:20:11;23.10;;;15.65;;
66169;SDS011;52971;44.024;20.456;2022-11-15T10:22:44;21.90;;;15.38;;
66169;SDS011;52971;44.024;20.456;2022-11-15T10:25:20;21.00;;;13.77;;
66169;SDS011;52971;44.024;20.456;2022-11-15T10:28:22;22.52;;;14.75;;
66169;SDS011;52971;44.024;20.456;2022-11-15T10:30:47;20.77;;;14.18;;
66169;SDS011;52971;44.024;20.456;2022-11-15T10:33:20;21.33;;;14.23;;
66169;SDS011;52971;44.024;20.456;2022-11-15T10:35:47;28.10;;;16.52;;
66169;SDS011;52971;44.024;20.456;2022-11-15T10:38:13;22.90;;;15.65;;
66169;SDS011;52971;44.024;20.456;2022-11-15T10:40:39;25.50;;;16.70;;
66169;SDS011;52971;44.024;20.456;2022-11-15T10:43:12;25.70;;;17.77;;
66169;SDS011;52971;44.024;20.456;2022-11-15T10:45:42;23.27;;;16.17;;
66169;SDS011;52971;44.024;20.456;2022-11-15T10:50:37;21.63;;;16.45;;
66169;SDS011;52971;44.024;20.456;2022-11-15T10:53:24;24.42;;;16.77;;
66169;SDS011;52971;44.024;20.456;2022-11-15T10:55:57;24.85;;;16.90;;
66169;SDS011;52971;44.024;20.456;2022-11-15T10:58:34;24.35;;;15.15;;
66169;SDS011;52971;44.024;20.456;2022-11-15T11:01:09;22.50;;;15.77;;
66169;SDS011;52971;44.024;20.456;2022-11-15T11:08:34;19.20;;;14.60;;
66169;SDS011;52971;44.024;20.456;2022-11-15T11:28:59;14.15;;;12.27;;
66169;SDS011;52971;44.024;20.456;2022-11-15T11:42:37;19.70;;;15.93;;
66169;SDS011;52971;44.024;20.456;2022-11-15T11:48:08;20.02;;;14.30;;
66169;SDS011;52971;44.024;20.456;2022-11-15T11:50:39;20.48;;;15.85;;
66169;SDS011;52971;44.024;20.456;2022-11-15T11:53:12;21.17;;;16.38;;
66169;SDS011;52971;44.024;20.456;2022-11-15T11:55:53;19.50;;;15.07;;
66169;SDS011;52971;44.024;20.456;2022-11-15T11:58:55;20.60;;;15.00;;
66169;SDS011;52971;44.024;20.456;2022-11-15T12:01:55;21.92;;;16.92;;
66169;SDS011;52971;44.024;20.456;2022-11-15T12:07:17;22.20;;;14.95;;
66169;SDS011;52971;44.024;20.456;2022-11-15T12:09:53;23.17;;;17.45;;
66169;SDS011;52971;44.024;20.456;2022-11-15T12:15:27;25.27;;;18.23;;
66169;SDS011;52971;44.024;20.456;2022-11-15T12:20:23;30.25;;;20.95;;
66169;SDS011;52971;44.024;20.456;2022-11-15T12:25:45;30.42;;;21.00;;
66169;SDS011;52971;44.024;20.456;2022-11-15T12:28:25;29.70;;;20.27;;
66169;SDS011;52971;44.024;20.456;2022-11-15T12:31:03;31.23;;;21.10;;
66169;SDS011;52971;44.024;20.456;2022-11-15T12:33:36;31.92;;;19.00;;
66169;SDS011;52971;44.024;20.456;2022-11-15T12:36:08;32.50;;;21.40;;
66169;SDS011;52971;44.024;20.456;2022-11-15T12:41:25;26.13;;;18.23;;
66169;SDS011;52971;44.024;20.456;2022-11-15T12:43:50;25.13;;;17.02;;
66169;SDS011;52971;44.024;20.456;2022-11-15T12:59:51;25.67;;;19.02;;
66169;SDS011;52971;44.024;20.456;2022-11-15T13:02:21;37.05;;;26.52;;
66169;SDS011;52971;44.024;20.456;2022-11-15T13:04:52;33.80;;;23.48;;
66169;SDS011;52971;44.024;20.456;2022-11-15T13:10:00;27.38;;;19.38;;
66169;SDS011;52971;44.024;20.456;2022-11-15T13:35:25;36.58;;;26.83;;
66169;SDS011;52971;44.024;20.456;2022-11-15T13:37:52;38.60;;;28.15;;
66169;SDS011;52971;44.024;20.456;2022-11-15T13:40:21;33.58;;;23.17;;
66169;SDS011;52971;44.024;20.456;2022-11-15T13:42:52;26.85;;;20.08;;
66169;SDS011;52971;44.024;20.456;2022-11-15T13:57:48;28.02;;;22.05;;
66169;SDS011;52971;44.024;20.456;2022-11-15T14:00:29;51.50;;;26.70;;
66169;SDS011;52971;44.024;20.456;2022-11-15T14:02:55;40.90;;;24.55;;
66169;SDS011;52971;44.024;20.456;2022-11-15T14:05:23;77.43;;;33.78;;
66169;SDS011;52971;44.024;20.456;2022-11-15T14:08:32;41.08;;;25.40;;
66169;SDS011;52971;44.024;20.456;2022-11-15T14:23:32;32.80;;;22.60;;
66169;SDS011;52971;44.024;20.456;2022-11-15T14:25:58;33.05;;;21.60;;
66169;SDS011;52971;44.024;20.456;2022-11-15T14:43:10;35.85;;;23.23;;
66169;SDS011;52971;44.024;20.456;2022-11-15T14:45:36;31.58;;;22.48;;
66169;SDS011;52971;44.024;20.456;2022-11-15T14:48:03;28.88;;;21.83;;
66169;SDS011;52971;44.024;20.456;2022-11-15T14:50:29;309.67;;;175.13;;
66169;SDS011;52971;44.024;20.456;2022-11-15T14:52:54;178.77;;;108.00;;
66169;SDS011;52971;44.024;20.456;2022-11-15T14:58:14;34.23;;;24.23;;
66169;SDS011;52971;44.024;20.456;2022-11-15T15:00:40;53.58;;;35.72;;
66169;SDS011;52971;44.024;20.456;2022-11-15T15:03:06;53.35;;;38.00;;
66169;SDS011;52971;44.024;20.456;2022-11-15T15:05:42;46.72;;;32.40;;
66169;SDS011;52971;44.024;20.456;2022-11-15T15:08:08;49.78;;;33.22;;
66169;SDS011;52971;44.024;20.456;2022-11-15T15:10:35;51.08;;;33.28;;
66169;SDS011;52971;44.024;20.456;2022-11-15T15:13:06;48.95;;;31.80;;
66169;SDS011;52971;44.024;20.456;2022-11-15T15:15:40;44.15;;;28.73;;
66169;SDS011;52971;44.024;20.456;2022-11-15T15:18:05;54.35;;;31.92;;
66169;SDS011;52971;44.024;20.456;2022-11-15T15:20:34;52.55;;;33.33;;
66169;SDS011;52971;44.024;20.456;2022-11-15T15:23:00;51.60;;;32.38;;
66169;SDS011;52971;44.024;20.456;2022-11-15T15:25:27;49.78;;;29.90;;
66169;SDS011;52971;44.024;20.456;2022-11-15T15:27:54;57.20;;;34.58;;
66169;SDS011;52971;44.024;20.456;2022-11-15T15:30:20;59.05;;;38.97;;
66169;SDS011;52971;44.024;20.456;2022-11-15T15:32:47;72.88;;;44.85;;
66169;SDS011;52971;44.024;20.456;2022-11-15T15:35:13;74.28;;;45.35;;
66169;SDS011;52971;44.024;20.456;2022-11-15T15:37:39;66.38;;;45.65;;
66169;SDS011;52971;44.024;20.456;2022-11-15T15:40:10;74.63;;;50.65;;
66169;SDS011;52971;44.024;20.456;2022-11-15T15:42:39;110.95;;;66.47;;
66169;SDS011;52971;44.024;20.456;2022-11-15T15:45:04;138.27;;;78.03;;
66169;SDS011;52971;44.024;20.456;2022-11-15T15:47:30;201.40;;;98.85;;
66169;SDS011;52971;44.024;20.456;2022-11-15T15:49:56;202.65;;;100.35;;
66169;SDS011;52971;44.024;20.456;2022-11-15T15:52:22;158.05;;;87.20;;
66169;SDS011;52971;44.024;20.456;2022-11-15T15:54:47;173.25;;;90.47;;
66169;SDS011;52971;44.024;20.456;2022-11-15T15:57:13;165.07;;;89.28;;
66169;SDS011;52971;44.024;20.456;2022-11-15T15:59:39;160.90;;;96.95;;
66169;SDS011;52971;44.024;20.456;2022-11-15T16:02:04;286.60;;;172.15;;
66169;SDS011;52971;44.024;20.456;2022-11-15T16:04:30;153.88;;;94.07;;
66169;SDS011;52971;44.024;20.456;2022-11-15T16:06:59;137.85;;;88.55;;
66169;SDS011;52971;44.024;20.456;2022-11-15T16:09:25;174.63;;;109.88;;
66169;SDS011;52971;44.024;20.456;2022-11-15T16:12:09;136.77;;;86.88;;
66169;SDS011;52971;44.024;20.456;2022-11-15T16:14:35;160.10;;;102.13;;
66169;SDS011;52971;44.024;20.456;2022-11-15T16:17:00;184.98;;;114.18;;
66169;SDS011;52971;44.024;20.456;2022-11-15T16:19:26;176.02;;;109.15;;
66169;SDS011;52971;44.024;20.456;2022-11-15T16:21:52;185.38;;;117.13;;
66169;SDS011;52971;44.024;20.456;2022-11-15T16:24:18;177.27;;;111.45;;
66169;SDS011;52971;44.024;20.456;2022-11-15T16:26:44;170.00;;;118.47;;
66169;SDS011;52971;44.024;20.456;2022-11-15T16:29:10;179.75;;;123.45;;
66169;SDS011;52971;44.024;20.456;2022-11-15T16:31:36;166.23;;;115.72;;
66169;SDS011;52971;44.024;20.456;2022-11-15T16:34:01;143.57;;;100.82;;
66169;SDS011;52971;44.024;20.456;2022-11-15T16:36:28;201.05;;;129.95;;
66169;SDS011;52971;44.024;20.456;2022-11-15T16:38:57;220.43;;;139.65;;
66169;SDS011;52971;44.024;20.456;2022-11-15T16:41:23;315.05;;;180.48;;
66169;SDS011;52971;44.024;20.456;2022-11-15T16:43:48;340.70;;;200.32;;
66169;SDS011;52971;44.024;20.456;2022-11-15T16:46:24;360.40;;;221.85;;
66169;SDS011;52971;44.024;20.456;2022-11-15T16:48:50;359.17;;;226.40;;
66169;SDS011;52971;44.024;20.456;2022-11-15T16:51:17;386.95;;;244.55;;
66169;SDS011;52971;44.024;20.456;2022-11-15T16:53:43;409.88;;;247.95;;
66169;SDS011;52971;44.024;20.456;2022-11-15T16:56:14;366.90;;;220.48;;
66169;SDS011;52971;44.024;20.456;2022-11-15T16:58:40;358.60;;;212.95;;
66169;SDS011;52971;44.024;20.456;2022-11-15T17:01:10;310.25;;;191.02;;
66169;SDS011;52971;44.024;20.456;2022-11-15T17:03:41;280.25;;;180.43;;
66169;SDS011;52971;44.024;20.456;2022-11-15T17:06:07;300.98;;;199.63;;
66169;SDS011;52971;44.024;20.456;2022-11-15T17:08:33;274.10;;;181.05;;
66169;SDS011;52971;44.024;20.456;2022-11-15T17:10:59;204.13;;;133.15;;
66169;SDS011;52971;44.024;20.456;2022-11-15T20:38:17;190.50;;;123.80;;
66169;SDS011;52971;44.024;20.456;2022-11-15T23:46:50;168.20;;;96.22;;
66169;SDS011;52971;44.024;20.456;2022-11-15T23:49:16;143.38;;;85.43;;
66169;SDS011;52971;44.024;20.456;2022-11-15T23:56:34;171.57;;;94.78;;
66169;SDS011;52971;44.024;20.456;2022-11-15T23:58:59;152.35;;;81.63;;
